ADDS METAR Data INFO
IDs: Format: Raw Decoded Include TAF

Data at: 1146 UTC 21 Jun 2018

KCGI 211142Z AUTO 21005KT 5SM BR SCT008 BKN022 OVC038 22/21 A2980 RMK AO2 RAB17E36 P0001 T02220206
KCGI 211053Z AUTO 25004KT 9SM BKN007 OVC022 22/21 A2981 RMK AO2 CIG 006V011 SLP090 T02220206
KCGI 211044Z AUTO 26003KT 9SM BKN009 OVC022 22/21 A2981 RMK AO2 CIG 007V011 T02220206
KCGI 211036Z AUTO 24003KT 10SM SCT009 OVC021 22/21 A2981 RMK AO2 T02220206
KCGI 211020Z AUTO 22007KT 10SM FEW013 BKN021 OVC110 22/20 A2981 RMK AO2 T02170200
KCGI 210953Z AUTO 22008KT 10SM FEW013 BKN065 OVC110 22/20 A2980 RMK AO2 SLP089 T02170200
KCGI 210939Z AUTO 22008KT 9SM FEW008 BKN070 OVC100 22/20 A2980 RMK AO2 T02170200
KCGI 210853Z AUTO 23007KT 10SM OVC009 22/20 A2981 RMK AO2 RAE00 CIG 007V010 SLP091 P0000 60004 T02170200 56013
KCGI 210835Z AUTO 23006KT 10SM OVC009 22/20 A2981 RMK AO2 RAE00 CIG 007V011 P0000 T02170200
KCGI 210753Z AUTO 23005KT 9SM -RA SCT009 BKN012 OVC046 22/20 A2982 RMK AO2 RAE00B09 SLP093 P0002 T02170200
KCGI 210741Z AUTO 23007KT 9SM -RA BKN011 BKN040 OVC049 22/20 A2983 RMK AO2 RAE00B09 CIG 008V022 P0001 T02170200
KCGI 210707Z AUTO 23007KT 10SM SCT025 SCT041 SCT120 22/19 A2983 RMK AO2 RAE00 P0000 T02170194
KCGI 210653Z AUTO 22008KT 10SM -RA BKN025 BKN060 22/19 A2984 RMK AO2 SLP099 P0002 T02170194
KCGI 210632Z AUTO 22008KT 10SM -RA SCT009 BKN027 OVC055 22/20 A2985 RMK AO2 P0002 T02170200
KCGI 210553Z AUTO 20006KT 8SM -RA FEW008 BKN014 OVC060 22/21 A2985 RMK AO2 RAB01 SLP103 P0009 60009 T02220206 10289 20222 403220222 58003
KCGI 210541Z AUTO 21006KT 5SM RA BR SCT010 BKN014 OVC032 22/21 A2985 RMK AO2 RAB01 P0008 T02220206
KCGI 210528Z AUTO 22009KT 5SM RA BR BKN009 BKN016 OVC027 22/21 A2986 RMK AO2 RAB01 P0004 T02220206
KCGI 210453Z AUTO 22010KT 10SM BKN013 BKN020 OVC100 24/21 A2986 RMK AO2 RAB27E44 SLP107 P0000 T02390211
KCGI 210448Z AUTO 23008KT 10SM BKN013 OVC100 24/21 A2986 RMK AO2 RAB27E44 P0000
KCGI 210353Z AUTO 20006KT 10SM SCT019 BKN070 24/20 A2986 RMK AO2 SLP106 T02390200
KCGI 210253Z AUTO 23005KT 10SM OVC070 24/21 A2987 RMK AO2 SLP110 T02390206 51013
KCGI 210153Z AUTO 25010G20KT 10SM SCT075 BKN090 BKN110 25/20 A2986 RMK AO2 SLP109 T02500200
KCGI 210053Z AUTO 23009KT 10SM FEW070 SCT080 BKN100 26/21 A2986 RMK AO2 PK WND 24028/2358 SLP106 T02560206
KCGI 202353Z AUTO 22009KT 10SM SCT065 29/20 A2983 RMK AO2 SLP096 60015 T02890200 10322 20261 55004
KCGI 202253Z AUTO 22009G19KT 10SM CLR 31/20 A2981 RMK AO2 SLP091 T03060200
KCGI 202153Z AUTO 21010KT 10SM SCT120 31/21 A2982 RMK AO2 SLP094 T03060211
KCGI 202053Z AUTO VRB04KT 10SM FEW075 BKN100 29/22 A2984 RMK AO2 RAE1957 SLP100 P0000 60015 T02940217 58018
KCGI 201953Z 35004KT 3SM R10/4000VP6000FT -RA FEW038 BKN075 OVC100 27/23 A2986 RMK AO2 LTG DSNT NE RAB34 TSB1855E22 SLP109 P0015 T02670228
KCGI 201939Z 28008KT 1 3/4SM R10/4000VP6000FT +RA FEW035 BKN046 OVC080 27/22 A2988 RMK AO2 RAB34 TSB1855E22 P0009 T02670217
KCGI 201928Z 34008KT 10SM BKN036 BKN049 BKN060 28/22 A2988 RMK AO2 TSB1855E22 T02830222
KCGI 201901Z 21011KT 10SM TS FEW036 FEW050 SCT075 31/21 A2988 RMK AO2 TSB1855 T03110211
KCGI 201853Z 19012KT 10SM FEW036 SCT050 BKN075 31/22 A2988 RMK AO2 SLP114 T03060217
KCGI 201753Z 19011KT 9SM CLR 31/22 A2989 RMK AO2 SLP118 T03110222 10322 20239 58011
KCGI 201653Z 24009KT 10SM BKN075 BKN090 31/19 A2991 RMK AO2 SLP123 T03110194
KCGI 201553Z 25011KT 10SM BKN075 31/20 A2992 RMK AO2 SLP126 T03110200
KCGI 201453Z 24006KT 10SM FEW060 BKN075 29/21 A2993 RMK AO2 SLP129 T02890206 58001
KCGI 201416Z 26008KT 3SM HZ OVC075 28/21 A2993 RMK AO2 T02780206
KCGI 201407Z 26007KT 1 3/4SM R10/4500VP6000FT HZ FEW004 BKN075 27/21 A2993 RMK AO2 VIS 3/4V5 T02720206
KCGI 201401Z 26008KT 210V290 4SM HZ FEW002 SCT065 BKN080 28/21 A2993 RMK AO2 T02780206
KCGI 201353Z 27007KT 2SM HZ FEW002 BKN065 BKN080 27/21 A2993 RMK AO2 VIS 1 1/4V5 SLP131 T02720206
KCGI 201343Z 26008KT 2 1/2SM R10/4000VP6000FT HZ FEW002 SCT080 27/20 A2993 RMK AO2 T02720200
KCGI 201253Z 23006KT 10SM CLR 26/19 A2993 RMK AO2 SLP130 T02610194
KCGI 201153Z 18003KT 10SM CLR 24/19 A2993 RMK AO2 SLP130 T02390194 10261 20222 53002
KCGI 201053Z AUTO 18003KT 10SM CLR 23/19 A2993 RMK AO2 SLP131 T02280189
KCGI 200953Z AUTO 23005KT 10SM CLR 23/19 A2992 RMK AO2 SLP127 T02330189
KCGI 200853Z AUTO 23005KT 10SM OVC085 25/19 A2992 RMK AO2 SLP128 T02500189 56002
KCGI 200753Z AUTO 24005KT 10SM SCT080 24/19 A2993 RMK AO2 SLP129 T02390189
KCGI 200653Z AUTO 24005KT 10SM CLR 25/19 A2993 RMK AO2 SLP130 T02500189
KCGI 200553Z AUTO 20011KT 10SM CLR 26/19 A2993 RMK AO2 SLP131 T02610194 10311 20261 403390222 53003
KCGI 200453Z AUTO 21006KT 10SM CLR 27/19 A2992 RMK AO2 SLP128 T02670194
KCGI 200353Z AUTO 20006KT 10SM CLR 27/19 A2993 RMK AO2 SLP129 T02670194
KCGI 200253Z AUTO 20005KT 10SM CLR 27/19 A2992 RMK AO2 SLP128 T02670194 53001
KCGI 200153Z AUTO 21006KT 10SM CLR 28/19 A2992 RMK AO2 SLP127 T02780194
KCGI 200053Z AUTO 21008KT 10SM CLR 29/20 A2991 RMK AO2 SLP125 T02940200
KCGI 192353Z AUTO 21008KT 10SM CLR 31/20 A2992 RMK AO2 SLP127 T03110200 10339 20311 55006